createdAt,value
2017-11-24T00:00:17.413Z,6.50
2017-11-24T00:02:52.231Z,6.00
2017-11-24T00:05:27.327Z,4.50
2017-11-24T00:08:01.019Z,5.50
2017-11-24T00:10:33.208Z,5.00
2017-11-24T00:13:05.529Z,6.00
2017-11-24T00:15:39.311Z,5.50
2017-11-24T00:18:13.203Z,7.00
2017-11-24T00:20:45.902Z,6.25
2017-11-24T00:23:19.383Z,7.75
2017-11-24T00:25:54.635Z,5.00
2017-11-24T00:28:27.836Z,6.50
2017-11-24T00:31:03.770Z,5.50
2017-11-24T00:33:34.847Z,10.00
2017-11-24T00:36:07.819Z,7.00
2017-11-24T00:38:40.034Z,7.75
2017-11-24T00:41:11.836Z,4.50
2017-11-24T00:43:43.941Z,5.00
2017-11-24T00:46:18.441Z,4.75
2017-11-24T00:48:57.377Z,6.50
2017-11-24T00:51:28.390Z,4.75
2017-11-24T00:54:02.258Z,5.25
2017-11-24T00:56:37.886Z,5.75
2017-11-24T00:59:12.049Z,3.50
2017-11-24T01:01:44.564Z,4.50
2017-11-24T01:04:16.882Z,4.75
2017-11-24T01:06:49.063Z,4.25
2017-11-24T01:09:21.951Z,2.75
2017-11-24T01:11:53.961Z,5.00
2017-11-24T01:14:26.254Z,4.25
2017-11-24T01:17:00.091Z,5.00
2017-11-24T01:19:32.751Z,2.75
2017-11-24T01:22:04.454Z,4.50
2017-11-24T01:24:37.055Z,4.50
2017-11-24T01:27:08.960Z,5.00
2017-11-24T01:29:40.875Z,3.75
2017-11-24T01:32:14.356Z,3.00
2017-11-24T01:34:46.960Z,3.50
2017-11-24T01:37:20.855Z,3.75
2017-11-24T01:39:53.148Z,4.25
2017-11-24T01:42:25.056Z,5.00
2017-11-24T01:44:57.267Z,4.25
2017-11-24T01:47:30.358Z,2.75
2017-11-24T01:50:02.260Z,3.00
2017-11-24T01:52:34.953Z,2.00
2017-11-24T01:55:07.767Z,2.00
2017-11-24T01:57:41.460Z,4.50
2017-11-24T02:00:16.757Z,4.00
2017-11-24T02:02:49.697Z,4.00
2017-11-24T02:05:23.554Z,4.50
2017-11-24T02:08:02.366Z,4.50
2017-11-24T02:10:36.561Z,7.75
2017-11-24T02:13:09.163Z,6.50
2017-11-24T02:15:41.164Z,8.00
2017-11-24T02:18:13.285Z,5.50
2017-11-24T02:20:46.204Z,5.50
2017-11-24T02:23:18.297Z,5.50
2017-11-24T02:25:50.195Z,5.25
2017-11-24T02:28:27.799Z,8.00
2017-11-24T02:31:00.598Z,6.00
2017-11-24T02:33:32.691Z,5.25
2017-11-24T02:36:05.096Z,7.50
2017-11-24T02:38:42.101Z,6.75
2017-11-24T02:41:15.014Z,6.25
2017-11-24T02:43:47.715Z,5.75
2017-11-24T02:46:20.312Z,7.75
2017-11-24T02:48:52.504Z,7.25
2017-11-24T02:51:24.809Z,7.00
2017-11-24T02:53:58.705Z,6.75
2017-11-24T02:56:33.198Z,7.00
2017-11-24T02:59:05.905Z,5.25
2017-11-24T03:01:38.100Z,10.25
2017-11-24T03:04:10.846Z,8.00
2017-11-24T03:06:43.611Z,7.50
2017-11-24T03:09:17.197Z,7.50
2017-11-24T03:11:49.598Z,10.75
2017-11-24T03:14:23.200Z,8.75
2017-11-24T03:16:58.197Z,9.00
2017-11-24T03:19:30.102Z,8.50
2017-11-24T03:22:02.208Z,5.75
2017-11-24T03:24:35.012Z,8.75
2017-11-24T03:27:07.190Z,6.00
2017-11-24T03:29:39.095Z,8.75
2017-11-24T03:32:11.389Z,9.25
2017-11-24T03:34:43.281Z,10.75
2017-11-24T03:37:15.496Z,9.00
2017-11-24T03:39:47.484Z,10.50
2017-11-24T03:42:19.489Z,6.75
2017-11-24T03:44:55.120Z,9.25
2017-11-24T03:47:28.996Z,11.50
2017-11-24T03:50:01.195Z,10.50
2017-11-24T03:52:33.187Z,8.25
2017-11-24T03:55:06.198Z,16.00
2017-11-24T03:57:38.100Z,11.75
2017-11-24T04:00:14.933Z,14.00
2017-11-24T04:02:47.825Z,14.00
2017-11-24T04:05:19.740Z,14.75
2017-11-24T04:07:51.638Z,13.50
2017-11-24T04:10:24.337Z,14.50
2017-11-24T04:12:58.140Z,12.75
2017-11-24T04:15:31.051Z,11.25
2017-11-24T04:18:03.166Z,14.50
2017-11-24T04:20:35.253Z,11.00
2017-11-24T04:23:10.168Z,13.25
2017-11-24T04:25:42.172Z,11.00
2017-11-24T04:28:14.773Z,10.75
2017-11-24T04:30:47.457Z,12.25
2017-11-24T04:33:21.651Z,13.50
2017-11-24T04:35:54.044Z,15.00
2017-11-24T04:38:27.342Z,14.75
2017-11-24T04:40:59.254Z,18.00
2017-11-24T04:43:32.368Z,14.00
2017-11-24T04:46:05.137Z,15.25
2017-11-24T04:48:37.349Z,15.00
2017-11-24T04:51:10.041Z,16.00
2017-11-24T04:53:42.936Z,12.75
2017-11-24T04:56:14.838Z,14.50
2017-11-24T04:58:47.546Z,14.50
2017-11-24T05:01:20.727Z,13.00
2017-11-24T05:03:52.958Z,23.00
2017-11-24T05:06:25.133Z,17.50
2017-11-24T05:08:58.750Z,11.50
2017-11-24T05:11:31.438Z,11.75
2017-11-24T05:14:03.346Z,16.50
2017-11-24T05:16:35.821Z,14.00
2017-11-24T05:19:07.712Z,11.50
2017-11-24T05:21:40.117Z,14.25
2017-11-24T05:24:12.112Z,27.50
2017-11-24T05:26:46.483Z,18.25
2017-11-24T05:29:18.627Z,14.50
2017-11-24T05:31:51.520Z,13.25
2017-11-24T05:34:24.912Z,10.25
2017-11-24T05:37:07.328Z,9.75
2017-11-24T05:39:41.028Z,11.00
2017-11-24T05:42:13.442Z,8.00
2017-11-24T05:44:46.248Z,10.50
2017-11-24T05:47:18.861Z,9.50
2017-11-24T05:50:03.916Z,7.50
2017-11-24T05:52:36.169Z,9.75
2017-11-24T05:55:08.974Z,9.75
2017-11-24T05:57:41.679Z,8.00
2017-11-24T06:00:17.792Z,7.50
2017-11-24T06:02:50.220Z,9.00
2017-11-24T06:05:32.094Z,7.25
2017-11-24T06:08:05.597Z,10.00
2017-11-24T06:10:37.726Z,9.75
2017-11-24T06:13:10.898Z,10.25
2017-11-24T06:15:43.794Z,9.75
2017-11-24T06:18:17.031Z,9.25
2017-11-24T06:20:50.684Z,10.25
2017-11-24T06:23:28.580Z,10.75
2017-11-24T06:26:00.698Z,8.75
2017-11-24T06:28:34.978Z,10.50
2017-11-24T06:31:08.592Z,7.50
2017-11-24T06:33:41.008Z,10.25
2017-11-24T06:36:13.807Z,5.25
2017-11-24T06:38:47.274Z,10.00
2017-11-24T06:41:19.973Z,8.00
2017-11-24T06:43:53.476Z,11.00
2017-11-24T06:46:28.677Z,13.50
2017-11-24T06:49:08.972Z,10.50
2017-11-24T06:51:42.374Z,12.25
2017-11-24T06:54:14.417Z,22.75
2017-11-24T06:56:46.971Z,21.75
2017-11-24T06:59:19.188Z,13.75
2017-11-24T07:01:52.986Z,15.25
2017-11-24T07:04:27.677Z,18.25
2017-11-24T07:07:04.094Z,10.50
2017-11-24T07:09:40.086Z,16.75
2017-11-24T07:12:18.182Z,14.00
2017-11-24T07:14:56.475Z,17.00
2017-11-24T07:17:29.043Z,16.25
2017-11-24T07:20:04.604Z,19.50
2017-11-24T07:22:37.919Z,19.25
2017-11-24T07:25:09.917Z,15.50
2017-11-24T07:27:41.929Z,14.75
2017-11-24T07:30:18.430Z,14.75
2017-11-24T07:32:58.627Z,20.50
2017-11-24T07:35:30.829Z,21.00
2017-11-24T07:38:04.138Z,18.00
2017-11-24T07:40:37.339Z,21.00
2017-11-24T07:43:18.970Z,25.75
2017-11-24T07:45:56.037Z,29.75
2017-11-24T07:48:28.040Z,23.25
2017-11-24T07:51:02.201Z,21.75
2017-11-24T07:53:45.116Z,20.25
2017-11-24T07:56:20.544Z,21.00
2017-11-24T07:58:53.757Z,27.00
2017-11-24T08:01:28.040Z,22.25
2017-11-24T08:06:44.050Z,18.00
2017-11-24T08:09:18.841Z,14.25
2017-11-24T08:11:50.942Z,13.00
2017-11-24T08:14:23.336Z,10.00
2017-11-24T08:16:56.835Z,14.00
2017-11-24T08:19:36.828Z,12.75
2017-11-24T08:22:11.332Z,12.00
2017-11-24T08:24:45.338Z,9.00
2017-11-24T08:27:18.933Z,11.00
2017-11-24T08:29:51.528Z,8.00
2017-11-24T08:32:24.719Z,9.50
2017-11-24T08:34:58.897Z,10.25
2017-11-24T08:37:32.004Z,15.50
2017-11-24T08:40:12.710Z,12.50
2017-11-24T08:42:45.103Z,10.75
2017-11-24T08:45:18.603Z,10.00
2017-11-24T08:49:56.111Z,7.50
2017-11-24T08:52:28.102Z,8.25
2017-11-24T08:55:01.925Z,7.00
2017-11-24T08:57:33.904Z,9.50
2017-11-24T09:00:10.391Z,5.00
2017-11-24T09:02:55.996Z,5.00
2017-11-24T09:05:28.710Z,4.00
2017-11-24T09:08:02.933Z,4.00
2017-11-24T09:10:36.824Z,5.50
2017-11-24T09:13:09.960Z,5.00
2017-11-24T09:15:43.938Z,4.00
2017-11-24T09:18:17.576Z,5.00
2017-11-24T09:20:50.347Z,7.75
2017-11-24T09:23:23.183Z,5.00
2017-11-24T09:25:55.259Z,8.00
2017-11-24T09:28:35.971Z,4.00
2017-11-24T09:31:22.388Z,8.00
2017-11-24T09:33:56.867Z,9.75
2017-11-24T09:36:29.776Z,7.50
2017-11-24T09:39:02.784Z,6.75
2017-11-24T09:41:35.958Z,7.00
2017-11-24T09:44:06.930Z,5.00
2017-11-24T09:46:39.345Z,8.25
2017-11-24T09:49:11.840Z,9.50
2017-11-24T09:51:43.851Z,12.00
2017-11-24T09:54:15.849Z,12.00
2017-11-24T09:56:49.465Z,13.00
2017-11-24T09:59:31.883Z,11.75
2017-11-24T10:02:06.136Z,14.00
2017-11-24T10:04:39.857Z,14.00
2017-11-24T10:07:13.645Z,12.25
2017-11-24T10:09:48.444Z,11.00
2017-11-24T10:12:19.179Z,11.00
2017-11-24T10:14:53.461Z,11.00
2017-11-24T10:17:28.376Z,9.00
2017-11-24T10:20:04.575Z,7.50
2017-11-24T10:22:44.310Z,9.75
2017-11-24T10:25:17.285Z,8.50
2017-11-24T10:27:52.020Z,7.50
2017-11-24T10:30:27.757Z,13.00
2017-11-24T10:33:01.059Z,8.00
2017-11-24T10:35:34.941Z,10.50
2017-11-24T10:38:07.911Z,10.25
2017-11-24T10:40:45.829Z,8.50
2017-11-24T10:43:19.213Z,9.75
2017-11-24T10:45:52.421Z,9.75
2017-11-24T10:48:26.842Z,11.00
2017-11-24T10:51:04.410Z,8.25
2017-11-24T10:53:37.713Z,12.25
2017-11-24T10:56:11.106Z,17.00
2017-11-24T10:58:43.201Z,17.50
2017-11-24T11:01:16.102Z,16.75
2017-11-24T11:03:50.510Z,20.50
2017-11-24T11:06:26.457Z,15.00
2017-11-24T11:08:59.878Z,18.00
2017-11-24T11:11:36.364Z,20.75
2017-11-24T11:14:09.821Z,18.00
2017-11-24T11:16:56.497Z,15.25
2017-11-24T11:19:33.417Z,12.50
2017-11-24T11:22:07.002Z,12.50
2017-11-24T11:24:40.908Z,11.25
2017-11-24T11:27:16.279Z,11.75
2017-11-24T11:29:49.784Z,10.75
2017-11-24T11:32:26.745Z,13.25
2017-11-24T11:35:03.692Z,13.25
2017-11-24T11:37:38.601Z,12.00
2017-11-24T11:40:11.766Z,10.50
2017-11-24T11:42:43.817Z,14.25
2017-11-24T11:45:20.985Z,13.50
2017-11-24T11:47:54.968Z,13.50
2017-11-24T11:53:11.333Z,15.00
2017-11-24T11:55:45.718Z,14.00
2017-11-24T11:58:21.107Z,10.75
2017-11-24T12:00:56.769Z,11.50
2017-11-24T12:03:31.234Z,10.00
2017-11-24T12:06:07.443Z,12.00
2017-11-24T12:08:41.387Z,11.00
2017-11-24T12:14:07.369Z,10.25
2017-11-24T12:16:50.485Z,13.25
2017-11-24T12:19:25.183Z,13.75
2017-11-24T12:22:00.284Z,12.25
2017-11-24T12:24:38.765Z,12.25
2017-11-24T12:27:12.087Z,11.00
2017-11-24T12:29:46.992Z,12.00
2017-11-24T12:32:20.866Z,12.75
2017-11-24T12:34:58.881Z,14.25
2017-11-24T12:37:35.693Z,14.25
2017-11-24T12:40:17.883Z,15.25
2017-11-24T12:42:57.286Z,21.25
2017-11-24T12:45:35.185Z,23.25
2017-11-24T12:53:11.334Z,16.50
2017-11-24T12:55:45.751Z,17.00
2017-11-24T12:58:23.105Z,15.25
2017-11-24T13:01:28.710Z,15.75
2017-11-24T13:04:15.407Z,17.50
2017-11-24T13:06:59.924Z,14.50
2017-11-24T13:09:44.207Z,16.25
2017-11-24T13:12:23.159Z,20.25
2017-11-24T13:15:07.387Z,22.75
2017-11-24T13:17:49.697Z,28.00
2017-11-24T13:20:31.604Z,19.50
2017-11-24T13:23:14.042Z,23.50
2017-11-24T13:26:27.695Z,23.00
2017-11-24T13:29:12.552Z,25.25
2017-11-24T13:32:16.118Z,29.00
2017-11-24T13:34:54.583Z,27.75
2017-11-24T13:37:37.474Z,23.25
2017-11-24T13:40:15.788Z,38.00
2017-11-24T13:42:56.191Z,39.50
2017-11-24T13:45:46.155Z,40.25
2017-11-24T13:48:37.038Z,51.75
2017-11-24T13:51:18.898Z,36.50
2017-11-24T13:56:59.700Z,33.25
2017-11-24T13:59:38.238Z,32.50
2017-11-24T14:02:18.567Z,24.00
2017-11-24T14:05:01.887Z,34.25
2017-11-24T14:07:41.616Z,26.25
2017-11-24T14:10:28.695Z,19.75
2017-11-24T14:13:08.084Z,21.25
2017-11-24T14:15:44.084Z,20.50
2017-11-24T14:21:15.719Z,23.50
2017-11-24T14:23:59.136Z,19.00
2017-11-24T14:26:50.070Z,17.00
2017-11-24T14:29:46.343Z,15.50
2017-11-24T14:32:28.278Z,23.75
2017-11-24T14:35:10.650Z,21.00
2017-11-24T14:37:50.024Z,25.00
2017-11-24T14:40:37.383Z,20.25
2017-11-24T14:43:28.720Z,22.25
2017-11-24T14:46:17.777Z,28.25
2017-11-24T14:49:15.500Z,23.75
2017-11-24T14:52:04.562Z,45.00
2017-11-24T14:54:50.949Z,24.00
2017-11-24T14:57:35.214Z,59.75
2017-11-24T15:00:26.904Z,27.25
2017-11-24T15:03:09.560Z,22.00
2017-11-24T15:05:52.812Z,31.50
2017-11-24T15:08:44.497Z,22.25
2017-11-24T15:11:24.496Z,24.75
2017-11-24T15:16:58.314Z,24.50
2017-11-24T15:19:39.658Z,28.75
2017-11-24T15:22:29.651Z,34.25
2017-11-24T15:25:13.076Z,23.00
2017-11-24T15:28:05.716Z,23.75
2017-11-24T15:30:49.631Z,24.75
2017-11-24T15:33:38.964Z,35.00
2017-11-24T15:36:20.322Z,35.50
2017-11-24T15:39:22.283Z,32.75
2017-11-24T15:47:56.803Z,37.50
2017-11-24T15:50:45.100Z,31.50
2017-11-24T15:53:31.474Z,30.50
2017-11-24T15:56:17.591Z,34.00
2017-11-24T15:59:05.507Z,24.50
2017-11-24T16:01:50.597Z,24.75
2017-11-24T16:04:36.028Z,25.50
2017-11-24T16:07:34.927Z,30.75
2017-11-24T16:10:19.378Z,30.00
2017-11-24T16:13:11.491Z,34.75
2017-11-24T16:16:03.578Z,29.00
2017-11-24T16:18:41.062Z,43.75
2017-11-24T16:21:24.876Z,62.25
2017-11-24T16:26:56.770Z,35.25
2017-11-24T16:29:40.103Z,35.75
2017-11-24T16:32:21.300Z,33.75
2017-11-24T16:40:55.864Z,48.50
2017-11-24T16:43:36.703Z,34.75
2017-11-24T16:46:20.058Z,46.00
2017-11-24T16:49:06.516Z,51.00
2017-11-24T16:51:47.520Z,50.50
2017-11-24T16:54:35.234Z,46.00
2017-11-24T16:57:22.346Z,45.00
2017-11-24T17:00:16.174Z,40.00
2017-11-24T17:03:05.377Z,38.00
2017-11-24T17:05:46.867Z,34.00
2017-11-24T17:08:33.403Z,38.50
2017-11-24T17:11:18.358Z,42.50
2017-11-24T17:14:02.060Z,41.25
2017-11-24T17:16:55.217Z,37.25
2017-11-24T17:19:40.463Z,45.00
2017-11-24T17:22:21.651Z,40.50
2017-11-24T17:25:26.048Z,44.50
2017-11-24T17:28:24.083Z,40.00
2017-11-24T17:31:09.764Z,32.25
2017-11-24T17:34:01.968Z,38.75
2017-11-24T17:36:44.154Z,32.75
2017-11-24T17:39:28.543Z,37.25
2017-11-24T17:45:23.546Z,39.25
2017-11-24T17:50:52.287Z,45.75
2017-11-24T17:53:34.853Z,38.75
2017-11-24T17:56:23.070Z,35.75
2017-11-24T17:59:15.777Z,48.00
2017-11-24T18:02:17.035Z,43.25
2017-11-24T18:05:17.171Z,46.00
2017-11-24T18:10:59.836Z,39.25
2017-11-24T18:13:44.034Z,39.75
2017-11-24T18:16:23.142Z,38.50
2017-11-24T18:19:07.337Z,49.75
2017-11-24T18:21:47.847Z,39.75
2017-11-24T18:24:27.116Z,42.25
2017-11-24T18:29:55.615Z,34.00
2017-11-24T18:32:40.966Z,34.75
2017-11-24T18:38:21.657Z,53.50
2017-11-24T18:41:14.411Z,39.00
2017-11-24T18:44:12.207Z,38.75
2017-11-24T18:50:00.928Z,39.75
2017-11-24T18:52:45.087Z,42.25
2017-11-24T18:55:32.116Z,36.75
2017-11-24T18:58:28.905Z,45.50
2017-11-24T19:01:09.298Z,44.75
2017-11-24T19:03:52.204Z,44.25
2017-11-24T19:06:47.466Z,58.50
2017-11-24T19:12:21.672Z,46.25
2017-11-24T19:15:12.845Z,32.50
2017-11-24T19:17:58.809Z,48.50
2017-11-24T19:20:43.517Z,44.50
2017-11-24T19:26:27.941Z,42.50
2017-11-24T19:29:12.790Z,45.00
2017-11-24T19:31:53.796Z,47.50
2017-11-24T19:34:33.737Z,42.25
2017-11-24T19:37:16.528Z,40.50
2017-11-24T19:39:54.132Z,36.50
2017-11-24T19:42:32.901Z,42.50
2017-11-24T19:45:27.196Z,49.50
2017-11-24T19:50:35.076Z,44.00
2017-11-24T19:53:14.642Z,49.75
2017-11-24T19:56:03.901Z,46.50
2017-11-24T19:58:49.167Z,42.00
2017-11-24T20:01:30.892Z,43.00
2017-11-24T20:04:16.968Z,40.75
2017-11-24T20:07:07.204Z,40.75
2017-11-24T20:09:50.856Z,53.00
2017-11-24T20:12:32.396Z,60.75
2017-11-24T20:15:21.492Z,71.00
2017-11-24T20:17:59.769Z,54.00
2017-11-24T20:20:44.802Z,59.75
2017-11-24T20:26:20.596Z,52.50
2017-11-24T20:28:58.132Z,55.50
2017-11-24T20:31:37.494Z,50.00
2017-11-24T20:34:18.229Z,55.00
2017-11-24T20:36:59.900Z,59.50
2017-11-24T20:39:43.801Z,52.25
2017-11-24T20:42:29.801Z,43.25
2017-11-24T20:45:30.602Z,46.50
2017-11-24T20:48:21.690Z,56.25
2017-11-24T20:51:25.002Z,56.50
2017-11-24T20:54:14.239Z,45.00
2017-11-24T20:56:52.718Z,45.25
2017-11-24T20:59:35.147Z,50.00
2017-11-24T21:02:20.626Z,49.75
2017-11-24T21:05:38.420Z,45.75
2017-11-24T21:08:21.743Z,51.50
2017-11-24T21:11:00.015Z,52.25
2017-11-24T21:13:42.413Z,58.00
2017-11-24T21:16:26.329Z,55.25
2017-11-24T21:19:08.008Z,50.25
2017-11-24T21:21:55.310Z,53.00
2017-11-24T21:24:37.140Z,51.25
2017-11-24T21:27:29.714Z,43.50
2017-11-24T21:30:15.613Z,49.00
2017-11-24T21:33:01.713Z,43.75
2017-11-24T21:35:45.622Z,42.75
2017-11-24T21:38:25.519Z,48.50
2017-11-24T21:41:02.207Z,46.75
2017-11-24T21:43:38.640Z,41.75
2017-11-24T21:46:14.740Z,50.00
2017-11-24T21:49:00.949Z,48.75
2017-11-24T21:51:43.080Z,49.25
2017-11-24T21:54:22.532Z,48.75
2017-11-24T21:56:59.267Z,48.75
2017-11-24T21:59:32.844Z,48.50
2017-11-24T22:02:08.431Z,53.50
2017-11-24T22:04:43.333Z,48.25
2017-11-24T22:07:25.146Z,50.75
2017-11-24T22:10:10.267Z,41.50
2017-11-24T22:12:53.031Z,54.00
2017-11-24T22:15:33.634Z,48.75
2017-11-24T22:18:11.057Z,47.00
2017-11-24T22:20:48.719Z,46.25
2017-11-24T22:23:25.715Z,49.00
2017-11-24T22:26:07.252Z,59.00
2017-11-24T22:28:58.244Z,42.00
2017-11-24T22:31:45.385Z,50.25
2017-11-24T22:34:27.951Z,45.75
2017-11-24T22:37:06.965Z,50.25
2017-11-24T22:39:46.652Z,40.75
2017-11-24T22:42:23.468Z,49.75
2017-11-24T22:45:00.878Z,43.00
2017-11-24T22:47:44.468Z,46.00
2017-11-24T22:50:21.478Z,49.75
2017-11-24T22:52:57.360Z,44.50
2017-11-24T22:55:35.031Z,51.25
2017-11-24T22:58:23.037Z,48.75
2017-11-24T23:01:03.271Z,51.25
2017-11-24T23:03:41.949Z,48.00
2017-11-24T23:06:19.742Z,50.50
2017-11-24T23:08:57.422Z,51.00
2017-11-24T23:11:37.010Z,50.00
2017-11-24T23:14:12.474Z,45.75
2017-11-24T23:16:48.658Z,49.25
2017-11-24T23:19:26.019Z,50.50
2017-11-24T23:22:01.098Z,48.00
2017-11-24T23:24:37.355Z,47.25
2017-11-24T23:27:15.793Z,59.50
2017-11-24T23:29:50.384Z,49.00
2017-11-24T23:32:25.500Z,55.50
2017-11-24T23:35:01.757Z,57.25
2017-11-24T23:37:35.651Z,55.25
2017-11-24T23:40:10.872Z,56.75
2017-11-24T23:42:42.942Z,52.50
2017-11-24T23:45:21.348Z,54.25
2017-11-24T23:47:54.344Z,52.75
2017-11-24T23:50:25.375Z,55.00
2017-11-24T23:52:59.530Z,54.25
2017-11-24T23:55:32.970Z,52.50
2017-11-24T23:58:05.456Z,48.50
